Time;durP1;ratioP1;P1;durP2;ratioP2;P2;SDS_P1;SDS_P2;PMS_P1;PMS_P2;Temp;Humidity;BMP_temperature;BMP_pressure;BME280_temperature;BME280_humidity;BME280_pressure;Samples;Min_cycle;Max_cycle;Signal;HPM_P1;HPM_P2
2021/05/28 00:00:06;;;;;;;;;;;;;;;24.27;53.43;100942.91;5032328;28;1708;-71
2021/05/28 00:02:31;;;;;;;;;;;;;;;24.23;54.19;100946.63;5027537;28;1428;-71
2021/05/28 00:04:56;;;;;;;;;;;;;;;24.22;53.53;100943.03;5032985;28;1946;-70
2021/05/28 00:07:21;;;;;;;;;;;;;;;24.29;56.41;100939.84;5032993;28;897;-71
2021/05/28 00:09:47;;;;;;;;;;;;;;;24.32;53.81;100937.25;5048465;28;1240;-72
2021/05/28 00:12:12;;;;;;;;;;;;;;;24.32;53.65;100934.50;5032635;28;1292;-72
2021/05/28 00:14:38;;;;;;;;;;;;;;;24.31;53.71;100929.34;5032474;28;826;-72
2021/05/28 00:17:03;;;;;;;;;;;;;;;24.28;53.94;100929.97;5032971;28;912;-72
2021/05/28 00:19:28;;;;;;;;;;;;;;;24.24;53.22;100926.22;5031810;28;1793;-72
2021/05/28 00:21:53;;;;;;;;;;;;;;;24.20;53.30;100920.50;5032673;28;842;-72
2021/05/28 00:24:20;;;;;;;;;;;;;;;24.19;53.53;100924.41;5032515;28;1879;-72
2021/05/28 00:26:45;;;;;;;;;;;;;;;24.18;53.72;100919.22;5030921;28;867;-72
2021/05/28 00:29:11;;;;;;;;;;;;;;;24.18;53.69;100906.25;5032272;28;881;-72
2021/05/28 00:31:36;;;;;;;;;;;;;;;24.21;53.40;100905.66;5032612;28;894;-71
2021/05/28 00:34:01;;;;;;;;;;;;;;;24.23;53.48;100908.91;5031716;28;1761;-70
2021/05/28 00:36:27;;;;;;;;;;;;;;;24.26;53.39;100910.19;5032039;28;901;-70
2021/05/28 00:38:52;;;;;;;;;;;;;;;24.25;53.55;100911.34;5032065;28;881;-71
2021/05/28 00:41:18;;;;;;;;;;;;;;;24.24;53.66;100912.44;5014664;28;1339;-70
2021/05/28 00:43:43;;;;;;;;;;;;;;;24.21;53.33;100911.16;5032140;28;1874;-70
2021/05/28 00:46:08;;;;;;;;;;;;;;;24.23;53.21;100908.91;5032375;28;876;-70
2021/05/28 00:48:34;;;;;;;;;;;;;;;24.23;53.97;100908.09;5032171;28;878;-72
2021/05/28 00:51:00;;;;;;;;;;;;;;;24.18;53.43;100908.22;5032090;28;1301;-72
2021/05/28 00:53:26;;;;;;;;;;;;;;;24.16;53.82;100899.44;5032088;28;858;-72
2021/05/28 00:55:52;;;;;;;;;;;;;;;24.10;53.67;100902.31;5032129;28;897;-71
2021/05/28 00:58:18;;;;;;;;;;;;;;;24.07;53.86;100886.44;5031902;28;859;-72
2021/05/28 01:00:43;;;;;;;;;;;;;;;24.10;53.90;100874.00;5031820;28;824;-73
2021/05/28 01:03:09;;;;;;;;;;;;;;;24.13;53.66;100868.69;5032196;28;893;-72
2021/05/28 01:05:34;;;;;;;;;;;;;;;24.12;53.76;100871.75;5031807;28;1918;-73
2021/05/28 01:08:00;;;;;;;;;;;;;;;24.15;53.71;100878.53;5031898;28;897;-72
2021/05/28 01:10:25;;;;;;;;;;;;;;;24.12;53.50;100883.56;5031173;28;873;-72
2021/05/28 01:12:50;;;;;;;;;;;;;;;24.07;53.33;100889.22;5031308;28;941;-71
2021/05/28 01:15:16;;;;;;;;;;;;;;;24.04;53.60;100894.53;5031839;28;851;-72
2021/05/28 01:17:41;;;;;;;;;;;;;;;24.06;53.48;100901.31;5031820;28;784;-70
2021/05/28 01:20:08;;;;;;;;;;;;;;;24.05;53.73;100896.97;5031598;28;858;-70
2021/05/28 01:22:33;;;;;;;;;;;;;;;24.04;53.34;100889.81;5031335;28;871;-71
2021/05/28 01:25:00;;;;;;;;;;;;;;;24.05;53.26;100896.97;5031509;28;1941;-71
2021/05/28 01:27:27;;;;;;;;;;;;;;;24.10;53.48;100904.28;5030056;28;1805;-72
2021/05/28 01:29:52;;;;;;;;;;;;;;;24.09;53.36;100905.41;5031430;28;929;-70
2021/05/28 01:32:17;;;;;;;;;;;;;;;24.07;53.15;100922.22;5031095;28;876;-70
2021/05/28 01:34:42;;;;;;;;;;;;;;;24.06;55.64;100920.59;5031136;28;874;-71
2021/05/28 01:37:08;;;;;;;;;;;;;;;24.12;52.88;100924.84;5031010;28;939;-72
2021/05/28 01:39:33;;;;;;;;;;;;;;;24.16;53.12;100921.47;5031237;28;891;-72
2021/05/28 01:41:58;;;;;;;;;;;;;;;24.11;53.42;100905.91;5031017;28;896;-70
2021/05/28 01:44:24;;;;;;;;;;;;;;;24.04;52.94;100903.59;5031303;28;1879;-70
2021/05/28 01:46:50;;;;;;;;;;;;;;;24.00;53.23;100904.53;5030274;28;1199;-70
2021/05/28 01:49:16;;;;;;;;;;;;;;;23.97;53.19;100907.91;5031018;28;828;-70
2021/05/28 01:51:51;;;;;;;;;;;;;;;23.94;53.19;100903.84;5029364;28;1364;-70
2021/05/28 01:54:17;;;;;;;;;;;;;;;23.96;53.51;100918.09;5029806;28;1307;-71
2021/05/28 01:56:45;;;;;;;;;;;;;;;23.98;53.48;100913.09;5029514;28;806;-71
2021/05/28 01:59:12;;;;;;;;;;;;;;;23.96;53.12;100912.59;5030656;28;852;-72
2021/05/28 02:01:37;;;;;;;;;;;;;;;24.00;53.19;100904.53;5030900;28;973;-74
2021/05/28 02:04:03;;;;;;;;;;;;;;;24.01;53.11;100909.72;5030781;28;1980;-72
2021/05/28 02:06:28;;;;;;;;;;;;;;;24.02;54.75;100903.09;5030420;28;1783;-71
2021/05/28 02:08:53;;;;;;;;;;;;;;;23.96;53.12;100901.59;5030936;28;1260;-71
2021/05/28 02:11:19;;;;;;;;;;;;;;;23.92;53.22;100898.66;5030360;28;873;-71
2021/05/28 02:13:44;;;;;;;;;;;;;;;23.89;53.38;100904.78;5030697;28;807;-74
2021/05/28 02:16:09;;;;;;;;;;;;;;;23.88;53.37;100897.63;5030631;28;840;-74
2021/05/28 02:18:35;;;;;;;;;;;;;;;23.86;53.87;100891.63;5030145;28;1923;-73
2021/05/28 02:21:00;;;;;;;;;;;;;;;23.86;53.59;100899.88;5030648;28;954;-74
2021/05/28 02:23:25;;;;;;;;;;;;;;;23.84;53.62;100887.59;5030520;28;1875;-73
2021/05/28 02:25:50;;;;;;;;;;;;;;;23.84;53.90;100887.59;5030191;28;914;-74
2021/05/28 02:28:16;;;;;;;;;;;;;;;23.84;53.69;100888.38;5030576;28;878;-73
2021/05/28 02:30:41;;;;;;;;;;;;;;;23.80;54.11;100879.13;5029988;28;1644;-74
2021/05/28 02:33:06;;;;;;;;;;;;;;;23.78;53.78;100884.13;5030399;28;958;-73
2021/05/28 02:35:32;;;;;;;;;;;;;;;23.78;54.16;100892.41;5030528;28;870;-73
2021/05/28 02:37:57;;;;;;;;;;;;;;;23.77;54.01;100887.19;5030731;28;917;-73
2021/05/28 02:40:22;;;;;;;;;;;;;;;23.79;54.08;100888.53;5030162;28;1188;-74
2021/05/28 02:42:48;;;;;;;;;;;;;;;23.76;54.16;100885.56;5030103;28;2192;-74
2021/05/28 02:45:14;;;;;;;;;;;;;;;23.87;56.66;100881.47;5030282;28;1934;-76
2021/05/28 02:47:39;;;;;;;;;;;;;;;24.13;56.75;100878.88;5030439;28;2038;-72
2021/05/28 02:50:04;;;;;;;;;;;;;;;24.18;56.37;100880.69;5030744;28;1892;-72
2021/05/28 02:52:30;;;;;;;;;;;;;;;24.15;55.38;100879.38;5031750;28;1893;-72
2021/05/28 02:54:55;;;;;;;;;;;;;;;24.12;55.21;100886.31;5032022;28;2058;-71
2021/05/28 02:57:20;;;;;;;;;;;;;;;24.11;54.73;100892.94;5028889;28;1778;-72
2021/05/28 02:59:46;;;;;;;;;;;;;;;24.11;54.70;100889.41;5032234;28;1659;-72
2021/05/28 03:02:11;;;;;;;;;;;;;;;24.10;54.79;100896.00;5032832;28;1739;-71
2021/05/28 03:04:37;;;;;;;;;;;;;;;24.10;54.65;100891.31;5033683;28;1906;-72
2021/05/28 03:07:03;;;;;;;;;;;;;;;24.10;54.28;100887.75;5034160;28;964;-71
2021/05/28 03:09:28;;;;;;;;;;;;;;;24.11;54.52;100898.47;5030307;28;1872;-73
2021/05/28 03:11:53;;;;;;;;;;;;;;;24.11;55.11;100890.19;5013393;28;2034;-73
2021/05/28 03:14:18;;;;;;;;;;;;;;;24.12;55.23;100907.53;5027023;28;1731;-73
2021/05/28 03:16:44;;;;;;;;;;;;;;;24.12;54.76;100908.31;5047440;28;1113;-73
2021/05/28 03:19:25;;;;;;;;;;;;;;;24.09;54.84;100902.66;5031349;28;1465;-65
2021/05/28 03:24:35;;;;;;;;;;;;;;;24.08;54.96;100895.50;5031042;28;1878;-72
2021/05/28 03:27:00;;;;;;;;;;;;;;;24.10;54.68;100902.31;5030889;28;1712;-72
2021/05/28 03:29:26;;;;;;;;;;;;;;;24.10;54.52;100902.31;5030493;28;1705;-72
2021/05/28 03:31:51;;;;;;;;;;;;;;;24.10;54.56;100907.03;5028242;28;1699;-72
2021/05/28 03:34:16;;;;;;;;;;;;;;;24.10;54.21;100915.28;5014715;28;1236;-72
2021/05/28 03:36:41;;;;;;;;;;;;;;;24.10;54.51;100912.53;5032306;28;862;-72
2021/05/28 03:39:07;;;;;;;;;;;;;;;24.10;54.65;100920.78;5030698;28;1740;-72
2021/05/28 03:41:32;;;;;;;;;;;;;;;24.11;55.53;100917.72;5047757;28;1728;-73
2021/05/28 03:43:58;;;;;;;;;;;;;;;24.10;54.76;100924.34;5033316;28;1902;-73
2021/05/28 03:46:23;;;;;;;;;;;;;;;24.10;54.81;100909.78;5030832;28;1734;-73
2021/05/28 03:48:48;;;;;;;;;;;;;;;24.10;54.37;100916.09;5031782;28;1653;-73
2021/05/28 03:51:14;;;;;;;;;;;;;;;24.10;54.51;100907.03;5031456;28;1102;-73
2021/05/28 03:53:39;;;;;;;;;;;;;;;24.09;54.65;100916.41;5031857;28;1537;-73
2021/05/28 03:56:04;;;;;;;;;;;;;;;24.05;54.01;100910.72;5031891;28;1673;-73
2021/05/28 03:58:30;;;;;;;;;;;;;;;24.00;53.99;100910.84;5032471;28;850;-72
2021/05/28 04:00:55;;;;;;;;;;;;;;;23.98;54.41;100910.34;5032078;28;885;-72
2021/05/28 04:03:20;;;;;;;;;;;;;;;23.99;53.98;100900.16;5032495;28;787;-72
2021/05/28 04:05:45;;;;;;;;;;;;;;;23.93;53.51;100903.03;5031991;28;1969;-72
2021/05/28 04:08:11;;;;;;;;;;;;;;;23.83;52.97;100895.03;5031725;28;1616;-72
2021/05/28 04:10:36;;;;;;;;;;;;;;;23.78;52.66;100899.84;5033400;28;1742;-71
2021/05/28 04:13:01;;;;;;;;;;;;;;;23.71;53.00;100887.31;5031601;28;1943;-72
2021/05/28 04:15:27;;;;;;;;;;;;;;;23.79;53.34;100885.78;5032200;28;1995;-72
2021/05/28 04:17:52;;;;;;;;;;;;;;;23.87;53.20;100895.22;5014961;28;1205;-72
2021/05/28 04:20:18;;;;;;;;;;;;;;;23.90;53.04;100891.84;5032530;28;875;-72
2021/05/28 04:22:44;;;;;;;;;;;;;;;23.89;53.31;100885.53;5031847;28;2079;-72
2021/05/28 04:25:10;;;;;;;;;;;;;;;23.89;53.48;100890.22;5025780;28;1870;-72
2021/05/28 04:27:35;;;;;;;;;;;;;;;23.90;53.53;100889.09;5031216;28;1737;-72
2021/05/28 04:30:01;;;;;;;;;;;;;;;23.90;53.16;100889.91;5031672;28;954;-72
2021/05/28 04:32:26;;;;;;;;;;;;;;;23.92;53.46;100886.84;5031576;28;787;-72
2021/05/28 04:34:51;;;;;;;;;;;;;;;23.92;53.46;100889.59;5030323;28;1891;-72
2021/05/28 04:37:17;;;;;;;;;;;;;;;23.92;53.47;100884.06;5032239;28;779;-72
2021/05/28 04:39:42;;;;;;;;;;;;;;;23.92;53.27;100887.66;5031012;28;1709;-72
2021/05/28 04:42:07;;;;;;;;;;;;;;;23.92;53.35;100882.16;5030930;28;1698;-72
2021/05/28 04:44:33;;;;;;;;;;;;;;;23.94;53.52;100884.56;5030381;28;1874;-72
2021/05/28 04:46:58;;;;;;;;;;;;;;;23.93;53.13;100881.03;5031022;28;1804;-72
2021/05/28 04:49:23;;;;;;;;;;;;;;;23.96;53.62;100876.03;5013304;28;1597;-72
2021/05/28 04:51:49;;;;;;;;;;;;;;;23.95;53.95;100874.41;5031174;28;1104;-71
2021/05/28 04:54:14;;;;;;;;;;;;;;;23.98;55.93;100888.31;5030921;28;1712;-72
2021/05/28 04:56:40;;;;;;;;;;;;;;;23.97;54.61;100886.72;5030730;28;1616;-72
2021/05/28 04:59:05;;;;;;;;;;;;;;;23.89;53.99;100888.28;5031164;28;979;-72
2021/05/28 05:01:30;;;;;;;;;;;;;;;23.88;54.08;100897.63;5030869;28;1013;-72
2021/05/28 05:03:56;;;;;;;;;;;;;;;23.87;53.38;100901.53;5030637;28;1906;-72
2021/05/28 05:06:21;;;;;;;;;;;;;;;23.85;53.63;100891.97;5030531;28;1684;-72
2021/05/28 05:08:46;;;;;;;;;;;;;;;23.87;53.19;100896.03;5030633;28;1704;-72
2021/05/28 05:11:11;;;;;;;;;;;;;;;23.87;53.33;100898.78;5029957;28;1557;-72
2021/05/28 05:13:37;;;;;;;;;;;;;;;23.86;53.71;100899.88;5030495;28;815;-72
2021/05/28 05:16:02;;;;;;;;;;;;;;;23.86;53.31;100901.84;5030780;28;885;-72
2021/05/28 05:18:28;;;;;;;;;;;;;;;23.85;53.27;100895.53;5030671;28;791;-72
2021/05/28 05:20:53;;;;;;;;;;;;;;;23.89;53.24;100892.97;5019256;28;1788;-72
2021/05/28 05:23:18;;;;;;;;;;;;;;;23.90;55.09;100897.34;5025974;28;1417;-76
2021/05/28 05:25:44;;;;;;;;;;;;;;;23.87;54.21;100904.28;5030962;28;1994;-80
2021/05/28 05:28:09;;;;;;;;;;;;;;;23.88;53.07;100910.59;5013572;28;1310;-68
2021/05/28 05:30:35;;;;;;;;;;;;;;;23.86;53.38;100907.34;5029689;28;2145;-75
2021/05/28 05:33:00;;;;;;;;;;;;;;;23.90;53.31;100909.19;5030941;28;859;-72
2021/05/28 05:35:25;;;;;;;;;;;;;;;23.91;52.90;100905.28;5031313;28;878;-72
2021/05/28 05:37:50;;;;;;;;;;;;;;;23.90;52.55;100905.59;5013878;28;1599;-72
2021/05/28 05:40:16;;;;;;;;;;;;;;;23.96;53.43;100915.34;5031497;28;876;-76
2021/05/28 05:42:41;;;;;;;;;;;;;;;23.97;54.23;100903.22;5031695;28;927;-72
2021/05/28 05:45:08;;;;;;;;;;;;;;;24.04;57.94;100900.03;5031447;28;1921;-72
2021/05/28 05:47:33;;;;;;;;;;;;;;;24.09;57.33;100903.47;5030588;28;2159;-72
2021/05/28 05:49:58;;;;;;;;;;;;;;;24.10;56.72;100899.56;5028539;28;2044;-73
2021/05/28 05:52:24;;;;;;;;;;;;;;;24.13;59.03;100898.16;5030546;28;2233;-72
2021/05/28 05:54:49;;;;;;;;;;;;;;;24.11;58.30;100894.91;5029196;28;1918;-73
2021/05/28 05:57:14;;;;;;;;;;;;;;;24.12;59.06;100893.75;5029727;28;2065;-73
2021/05/28 05:59:39;;;;;;;;;;;;;;;24.13;58.83;100895.41;5029566;28;1921;-73
2021/05/28 06:02:05;;;;;;;;;;;;;;;24.12;59.09;100894.56;5025561;28;1602;-73
2021/05/28 06:04:30;;;;;;;;;;;;;;;24.13;58.36;100901.72;5024201;28;1906;-72
2021/05/28 06:06:56;;;;;;;;;;;;;;;24.12;55.24;100902.00;5029536;28;1366;-73
2021/05/28 06:09:21;;;;;;;;;;;;;;;24.11;58.19;100898.47;5019820;28;1347;-73
2021/05/28 06:11:46;;;;;;;;;;;;;;;24.10;56.07;100907.03;5027281;28;1265;-73
2021/05/28 06:14:12;;;;;;;;;;;;;;;24.10;54.98;100894.06;5026517;28;846;-73
2021/05/28 06:16:37;;;;;;;;;;;;;;;24.13;56.50;100898.97;5026813;28;822;-73
2021/05/28 06:19:02;;;;;;;;;;;;;;;24.15;55.76;100901.41;5027399;28;869;-72
2021/05/28 06:21:30;;;;;;;;;;;;;;;24.16;58.35;100896.69;5011241;28;1308;-73
2021/05/28 06:23:55;;;;;;;;;;;;;;;24.16;56.63;100900.25;5028579;28;1887;-72
2021/05/28 06:26:20;;;;;;;;;;;;;;;24.16;57.19;100894.75;5029474;28;929;-73
2021/05/28 06:28:46;;;;;;;;;;;;;;;24.15;55.49;100908.81;5028032;28;1455;-73
2021/05/28 06:31:11;;;;;;;;;;;;;;;24.15;55.88;100901.41;5029362;28;819;-73
2021/05/28 06:33:36;;;;;;;;;;;;;;;24.17;56.86;100899.16;5027886;28;963;-73
2021/05/28 06:36:02;;;;;;;;;;;;;;;24.16;56.91;100894.75;5028506;28;899;-73
2021/05/28 06:38:27;;;;;;;;;;;;;;;24.18;55.92;100886.19;5028778;28;969;-73
2021/05/28 06:40:52;;;;;;;;;;;;;;;24.18;57.67;100883.44;5029506;28;861;-72
2021/05/28 06:43:17;;;;;;;;;;;;;;;24.18;57.16;100892.50;5029377;28;839;-72
2021/05/28 06:45:43;;;;;;;;;;;;;;;24.19;56.74;100893.34;5011308;28;1874;-73
2021/05/28 06:48:09;;;;;;;;;;;;;;;24.18;55.53;100888.94;5029001;28;1411;-73
2021/05/28 06:50:34;;;;;;;;;;;;;;;24.19;55.93;100887.81;5029023;28;1135;-72
2021/05/28 06:53:00;;;;;;;;;;;;;;;24.19;56.16;100888.63;5029393;28;838;-73
2021/05/28 06:55:25;;;;;;;;;;;;;;;24.19;57.44;100885.06;5029474;28;886;-73
2021/05/28 06:57:51;;;;;;;;;;;;;;;24.19;56.35;100888.63;5029340;28;795;-73
2021/05/28 07:00:17;;;;;;;;;;;;;;;24.20;56.05;100887.50;5028423;28;1293;-73
2021/05/28 07:02:42;;;;;;;;;;;;;;;24.20;57.09;100889.44;5028134;28;1216;-73
2021/05/28 07:05:07;;;;;;;;;;;;;;;24.21;56.71;100889.13;5029375;28;1910;-73
2021/05/28 07:07:33;;;;;;;;;;;;;;;24.21;57.36;100888.31;5028950;28;847;-73
2021/05/28 07:09:59;;;;;;;;;;;;;;;24.20;57.03;100887.50;5029210;28;1046;-73
2021/05/28 07:12:24;;;;;;;;;;;;;;;24.20;55.58;100884.75;5029354;28;826;-73
2021/05/28 07:14:50;;;;;;;;;;;;;;;24.21;56.85;100882.81;5028707;28;866;-73
2021/05/28 07:17:15;;;;;;;;;;;;;;;24.20;57.22;100879.22;5029281;28;783;-73
2021/05/28 07:19:41;;;;;;;;;;;;;;;24.21;56.81;100883.63;5029679;28;822;-73
2021/05/28 07:22:06;;;;;;;;;;;;;;;24.22;55.97;100881.69;5028693;28;874;-73
2021/05/28 07:24:31;;;;;;;;;;;;;;;24.21;56.89;100882.81;5029051;28;1958;-73
2021/05/28 07:26:57;;;;;;;;;;;;;;;24.22;57.18;100882.47;5029013;28;862;-73
2021/05/28 07:29:22;;;;;;;;;;;;;;;24.21;56.83;100867.09;5028486;28;916;-73
2021/05/28 07:31:47;;;;;;;;;;;;;;;24.21;56.88;100867.09;5029061;28;874;-73
2021/05/28 07:34:13;;;;;;;;;;;;;;;24.21;56.23;100861.59;5029006;28;810;-73
2021/05/28 07:36:38;;;;;;;;;;;;;;;24.21;56.29;100861.59;5031150;28;755;-73
2021/05/28 07:39:03;;;;;;;;;;;;;;;24.22;55.96;100859.66;5032784;28;874;-73
2021/05/28 07:41:29;;;;;;;;;;;;;;;24.22;55.95;100854.97;5032727;28;823;-73
2021/05/28 07:43:54;;;;;;;;;;;;;;;24.22;55.92;100857.72;5031672;28;1866;-73
2021/05/28 07:46:19;;;;;;;;;;;;;;;24.22;55.80;100859.66;5032505;28;952;-73
2021/05/28 07:48:45;;;;;;;;;;;;;;;24.21;55.77;100852.53;5032735;28;795;-73
2021/05/28 07:51:10;;;;;;;;;;;;;;;24.21;55.59;100856.09;5032009;28;1244;-73
2021/05/28 07:53:35;;;;;;;;;;;;;;;24.21;55.46;100852.53;5031279;28;1208;-73
2021/05/28 07:56:05;;;;;;;;;;;;;;;24.21;55.89;100856.09;5032375;28;889;-73
2021/05/28 07:58:30;;;;;;;;;;;;;;;24.21;55.43;100847.84;5031644;28;882;-73
2021/05/28 08:00:56;;;;;;;;;;;;;;;24.21;55.57;100853.34;5032230;28;1296;-73
2021/05/28 08:03:21;;;;;;;;;;;;;;;24.22;55.41;100851.41;5032167;28;858;-73
2021/05/28 08:05:49;;;;;;;;;;;;;;;24.22;55.11;100856.91;5031830;28;2023;-73
2021/05/28 08:08:15;;;;;;;;;;;;;;;24.22;55.64;100856.91;5032041;28;901;-73
2021/05/28 08:10:40;;;;;;;;;;;;;;;24.22;55.48;100848.66;5032032;28;1010;-73
2021/05/28 08:13:05;;;;;;;;;;;;;;;24.21;55.49;100852.53;5031468;28;853;-73
2021/05/28 08:15:31;;;;;;;;;;;;;;;24.20;55.17;100846.22;5031992;28;830;-73
2021/05/28 08:17:57;;;;;;;;;;;;;;;24.21;55.50;100858.06;5031743;28;877;-73
2021/05/28 08:20:23;;;;;;;;;;;;;;;24.21;55.10;100856.09;5031567;28;878;-73
2021/05/28 08:22:48;;;;;;;;;;;;;;;24.20;54.95;100861.91;5031766;28;862;-73
2021/05/28 08:25:14;;;;;;;;;;;;;;;24.21;55.07;100858.84;5031391;28;1931;-73
2021/05/28 08:27:40;;;;;;;;;;;;;;;24.21;55.14;100860.81;5046303;28;1326;-73
2021/05/28 08:30:05;;;;;;;;;;;;;;;24.19;55.24;100863.06;5031419;28;897;-73
2021/05/28 08:32:31;;;;;;;;;;;;;;;24.20;54.88;100862.72;5031631;28;995;-73
2021/05/28 08:34:56;;;;;;;;;;;;;;;24.20;55.00;100864.66;5046872;28;1120;-73
2021/05/28 08:37:21;;;;;;;;;;;;;;;24.20;54.83;100868.22;5031599;28;960;-73
2021/05/28 08:39:47;;;;;;;;;;;;;;;24.20;54.57;100873.72;5031724;28;822;-73
2021/05/28 08:42:12;;;;;;;;;;;;;;;24.20;54.93;100875.69;5030735;28;874;-72
2021/05/28 08:44:37;;;;;;;;;;;;;;;24.20;54.83;100872.94;5031437;28;1874;-73
2021/05/28 08:47:03;;;;;;;;;;;;;;;24.20;54.70;100876.47;5030465;28;855;-73
2021/05/28 08:49:29;;;;;;;;;;;;;;;24.19;54.48;100869.38;5031074;28;866;-73
2021/05/28 08:51:57;;;;;;;;;;;;;;;24.20;54.85;100867.41;5030936;28;1450;-73
2021/05/28 08:54:22;;;;;;;;;;;;;;;24.20;54.85;100870.16;5031336;28;893;-74
2021/05/28 08:56:50;;;;;;;;;;;;;;;24.20;54.54;100870.97;5030541;28;814;-72
2021/05/28 08:59:15;;;;;;;;;;;;;;;24.20;54.53;100867.41;5031068;28;1359;-72
2021/05/28 09:01:40;;;;;;;;;;;;;;;24.18;54.64;100864.97;5029839;28;1398;-72
2021/05/28 09:04:07;;;;;;;;;;;;;;;24.20;54.56;100868.22;5030737;28;1906;-72
2021/05/28 09:06:39;;;;;;;;;;;;;;;24.19;54.48;100863.88;5029681;28;1342;-72
2021/05/28 09:09:23;;;;;;;;;;;;;;;24.20;54.81;100867.41;5031050;28;858;-72
2021/05/28 09:11:53;;;;;;;;;;;;;;;24.19;54.42;100865.81;5030392;28;893;-72
2021/05/28 09:14:39;;;;;;;;;;;;;;;24.19;54.29;100868.56;5030715;28;843;-71
2021/05/28 09:17:06;;;;;;;;;;;;;;;24.19;54.18;100868.56;5031235;28;878;-72
2021/05/28 09:19:34;;;;;;;;;;;;;;;24.19;54.48;100860.31;5030467;28;879;-72
2021/05/28 09:22:07;;;;;;;;;;;;;;;24.18;54.30;100867.72;5030741;28;924;-72
2021/05/28 09:24:43;;;;;;;;;;;;;;;24.19;54.22;100871.31;5030299;28;1891;-72
2021/05/28 09:27:18;;;;;;;;;;;;;;;24.19;54.48;100866.63;5030357;28;917;-72
2021/05/28 09:30:00;;;;;;;;;;;;;;;24.19;53.97;100868.56;5030661;28;914;-72
2021/05/28 09:32:25;;;;;;;;;;;;;;;24.19;53.68;100861.13;5030470;28;783;-72
2021/05/28 09:34:51;;;;;;;;;;;;;;;24.17;53.55;100868.88;5028942;28;1513;-72
2021/05/28 09:37:16;;;;;;;;;;;;;;;24.16;53.81;100867.22;5030436;28;917;-72
2021/05/28 09:39:41;;;;;;;;;;;;;;;24.17;53.32;100868.06;5030367;28;941;-72
2021/05/28 09:42:07;;;;;;;;;;;;;;;24.16;53.45;100867.22;5030014;28;909;-72
2021/05/28 09:44:32;;;;;;;;;;;;;;;24.17;53.21;100859.81;5030118;28;1870;-72
2021/05/28 09:47:14;;;;;;;;;;;;;;;24.16;53.24;100858.97;5030084;28;876;-72
2021/05/28 09:49:47;;;;;;;;;;;;;;;24.16;53.19;100858.16;5029865;28;1333;-72
2021/05/28 09:52:12;;;;;;;;;;;;;;;24.16;52.72;100853.47;5030450;28;852;-72
2021/05/28 09:54:38;;;;;;;;;;;;;;;24.16;52.90;100849.91;5029733;28;854;-72
2021/05/28 09:57:04;;;;;;;;;;;;;;;24.17;53.38;100849.59;5029679;28;874;-72
2021/05/28 09:59:45;;;;;;;;;;;;;;;24.18;52.94;100842.97;5029756;28;1374;-72
2021/05/28 10:02:21;;;;;;;;;;;;;;;24.19;53.17;100846.53;5030079;28;825;-72
2021/05/28 10:04:54;;;;;;;;;;;;;;;24.17;52.41;100844.09;5029729;28;1975;-72
2021/05/28 10:07:19;;;;;;;;;;;;;;;24.19;52.23;100843.78;5030743;28;909;-72
2021/05/28 10:09:45;;;;;;;;;;;;;;;24.18;51.62;100839.41;5030394;28;932;-72
2021/05/28 10:12:10;;;;;;;;;;;;;;;24.18;52.32;100837.47;5030185;28;916;-73
2021/05/28 10:14:36;;;;;;;;;;;;;;;24.16;51.60;100834.22;5030308;28;886;-72
2021/05/28 10:17:02;;;;;;;;;;;;;;;24.18;51.86;100837.47;5030638;28;847;-72
2021/05/28 10:19:28;;;;;;;;;;;;;;;24.16;49.06;100830.66;5029652;28;866;-72
2021/05/28 10:21:54;;;;;;;;;;;;;;;24.17;50.26;100833.09;5029609;28;885;-72
2021/05/28 10:24:19;;;;;;;;;;;;;;;24.18;51.16;100829.19;5044372;28;1875;-72
2021/05/28 10:26:48;;;;;;;;;;;;;;;24.19;51.07;100821.78;5029431;28;878;-72
2021/05/28 10:29:14;;;;;;;;;;;;;;;24.18;50.17;100831.16;5029679;28;854;-72
2021/05/28 10:31:56;;;;;;;;;;;;;;;24.16;43.72;100822.41;5029903;28;863;-72
2021/05/28 10:34:22;;;;;;;;;;;;;;;24.11;40.96;100821.41;5029163;28;810;-72
2021/05/28 10:36:47;;;;;;;;;;;;;;;24.13;45.23;100821.91;5029113;28;851;-72
2021/05/28 10:39:15;;;;;;;;;;;;;;;24.11;46.94;100821.41;5029145;28;927;-72
2021/05/28 10:41:44;;;;;;;;;;;;;;;24.15;48.82;100821.59;5029247;28;807;-72
2021/05/28 10:44:10;;;;;;;;;;;;;;;24.15;43.06;100815.25;5029298;28;1878;-72
2021/05/28 10:46:36;;;;;;;;;;;;;;;24.16;45.89;100808.63;5029552;28;893;-72
2021/05/28 10:49:01;;;;;;;;;;;;;;;24.12;46.24;100812.00;5029150;28;799;-72
2021/05/28 10:51:30;;;;;;;;;;;;;;;24.12;47.29;100814.75;5029218;28;1360;-72
2021/05/28 10:53:55;;;;;;;;;;;;;;;24.10;41.34;100806.00;5029442;28;866;-72
2021/05/28 10:56:36;;;;;;;;;;;;;;;24.10;43.15;100799.69;5029142;28;820;-72
2021/05/28 10:59:01;;;;;;;;;;;;;;;24.11;45.50;100801.34;5011604;28;1244;-72
2021/05/28 11:01:32;;;;;;;;;;;;;;;24.10;43.34;100789.50;5029679;28;827;-73
2021/05/28 11:03:59;;;;;;;;;;;;;;;24.11;44.55;100787.59;5028818;28;1906;-72
2021/05/28 11:06:24;;;;;;;;;;;;;;;24.09;44.68;100782.38;5028847;28;946;-73
2021/05/28 11:08:51;;;;;;;;;;;;;;;24.10;43.54;100791.44;5026381;28;1353;-72
2021/05/28 11:11:35;;;;;;;;;;;;;;;24.10;42.22;100781.25;5013486;28;1555;-72
2021/05/28 11:14:01;;;;;;;;;;;;;;;24.07;40.56;100781.91;5033108;28;806;-72
2021/05/28 11:16:28;;;;;;;;;;;;;;;24.07;41.18;100781.91;5033094;28;899;-71
2021/05/28 11:18:53;;;;;;;;;;;;;;;24.07;40.11;100770.09;5033098;28;905;-71
2021/05/28 11:21:20;;;;;;;;;;;;;;;24.09;43.70;100773.31;5032949;28;952;-71
2021/05/28 11:23:46;;;;;;;;;;;;;;;24.12;44.85;100764.44;5033113;28;1923;-78
2021/05/28 11:26:15;;;;;;;;;;;;;;;24.14;46.71;100759.41;5033195;28;854;-71
2021/05/28 11:28:51;;;;;;;;;;;;;;;24.16;48.24;100768.16;5033052;28;896;-71
2021/05/28 11:31:19;;;;;;;;;;;;;;;24.13;48.59;100764.13;5033160;28;862;-71
2021/05/28 11:33:44;;;;;;;;;;;;;;;24.12;48.85;100759.72;5015202;28;1192;-71
2021/05/28 11:36:30;;;;;;;;;;;;;;;24.15;48.48;100760.22;5032948;28;952;-71
2021/05/28 11:39:06;;;;;;;;;;;;;;;24.13;48.83;100758.59;5021988;28;1095;-72
2021/05/28 11:41:43;;;;;;;;;;;;;;;24.13;48.86;100753.09;5032837;28;874;-71
2021/05/28 11:44:10;;;;;;;;;;;;;;;24.15;48.91;100751.97;5032642;28;1867;-71
2021/05/28 11:46:37;;;;;;;;;;;;;;;24.15;48.96;100755.53;5032734;28;795;-71
2021/05/28 11:49:02;;;;;;;;;;;;;;;24.14;49.06;100753.91;5032738;28;854;-71
2021/05/28 11:51:27;;;;;;;;;;;;;;;24.15;49.06;100755.53;5014558;28;1298;-71
2021/05/28 11:53:53;;;;;;;;;;;;;;;24.16;49.13;100756.34;5032966;28;937;-71
2021/05/28 11:56:22;;;;;;;;;;;;;;;24.15;49.01;100750.03;5032621;28;803;-71
2021/05/28 11:58:49;;;;;;;;;;;;;;;24.16;49.03;100748.09;5032456;28;914;-71
2021/05/28 12:01:15;;;;;;;;;;;;;;;24.15;48.65;100747.28;5032532;28;952;-71
2021/05/28 12:03:40;;;;;;;;;;;;;;;24.15;48.98;100743.72;5032305;28;807;-71
2021/05/28 12:06:06;;;;;;;;;;;;;;;24.14;49.07;100742.91;5032103;28;1922;-71
2021/05/28 12:08:31;;;;;;;;;;;;;;;24.15;49.09;100743.72;5032260;28;882;-70
2021/05/28 12:10:58;;;;;;;;;;;;;;;24.15;49.46;100740.94;5032439;28;881;-71
2021/05/28 12:13:27;;;;;;;;;;;;;;;24.15;49.53;100743.72;5032172;28;874;-71
2021/05/28 12:15:53;;;;;;;;;;;;;;;24.16;49.37;100745.34;5032481;28;1044;-71
2021/05/28 12:18:19;;;;;;;;;;;;;;;24.16;49.81;100743.41;5014091;28;1389;-71
2021/05/28 12:20:46;;;;;;;;;;;;;;;24.15;49.79;100741.78;5032132;28;823;-71
2021/05/28 12:23:21;;;;;;;;;;;;;;;24.15;49.91;100744.53;5031910;28;807;-71
2021/05/28 12:25:46;;;;;;;;;;;;;;;24.14;49.79;100740.16;5032001;28;1945;-71
2021/05/28 12:28:14;;;;;;;;;;;;;;;24.15;50.00;100736.28;5014063;28;1644;-71
2021/05/28 12:30:40;;;;;;;;;;;;;;;24.15;49.95;100740.94;5032009;28;805;-71
2021/05/28 12:33:05;;;;;;;;;;;;;;;24.13;50.03;100733.84;5031930;28;827;-71
2021/05/28 12:35:31;;;;;;;;;;;;;;;24.13;50.18;100733.84;5031670;28;910;-70
2021/05/28 12:38:12;;;;;;;;;;;;;;;24.13;50.71;100736.59;5031639;28;779;-71
2021/05/28 12:40:39;;;;;;;;;;;;;;;24.12;50.59;100734.97;5031885;28;858;-71
2021/05/28 12:43:06;;;;;;;;;;;;;;;24.13;50.83;100738.53;5031816;28;819;-70
2021/05/28 12:45:39;;;;;;;;;;;;;;;24.11;50.61;100743.56;5031615;28;1931;-71
2021/05/28 12:48:04;;;;;;;;;;;;;;;24.11;50.73;100743.56;5031105;28;890;-71
2021/05/28 12:50:34;;;;;;;;;;;;;;;24.11;50.86;100746.31;5031458;28;1363;-71